Decoded Metar for YMEN (MELBOURNE in AUSTRALIA) (IATA:MEB) | Meteo·Mobile Aviation Weather
aviador You're here:

YMEN Decoded Metar

MELBOURNE in AUSTRALIA
Report Time2019-07-24 04:00:00
UTC Time2019-07-24 05:05:02
Flight Rules vfr VFR
Wind290° at 09 kt
W.Decomp.*RWY 26: 8.5 kt HW 2.9 kt RCW
RWY 35: 2.9 kt HW 8.5 kt LCW
Visibility9999 m
Phenomena:N/A
Clouds:Overcast 037 Hf
Expected CloudBase > 2,800 ft AGL from Temp-Dew spread
Ceiling3,700 ft
Temp13°C (ISA -1)
Dew Point06°C (63% RH)
AAT8.9°C
QNH1021 hPa
Density Alt-30 ft
Elevation282 ft
Report Wrong Elevation
Raw Report
METAR YMEN 240400Z AUTO 29009KT 9999 // OVC037 13/06 Q1021=

Extra information for YMEN:More info

Metar Taf Metar & Taf Last 4 Metars F.Rules Stats Wind Profile Meteogram Temp Stats Airport Information Weather charts Add Link Nearby VenuesMetar ALERT Operation Metar Decoded Social comments